[2025-03-12 00:00:00, 2025-03-12 23:59:59] previous next
| time | temperature | air pressure | humidity | solar radiation | wind speed |
|---|---|---|---|---|---|
| 2025-03-12 08:55:04 | 3.5 | 992.8 | 99.0 | 0.0 | 0.0 |
| 2025-03-12 09:20:03 | 4.9 | 992.5 | 99.0 | 91.5 | 0.0 |
| 2025-03-12 09:40:03 | 6.1 | 992.5 | 97.0 | 113.5 | 0.0 |
| 2025-03-12 10:00:04 | 7.3 | 992.5 | 88.0 | 128.9 | 0.0 |
| 2025-03-12 10:20:02 | 7.9 | 992.5 | 90.0 | 82.9 | 0.7 |
| 2025-03-12 10:40:03 | 7.4 | 992.5 | 88.0 | 141.6 | 0.0 |
| 2025-03-12 11:00:03 | 7.7 | 992.5 | 83.0 | 185.4 | 0.3 |
| 2025-03-12 11:20:03 | 8.7 | 992.1 | 76.0 | 131.5 | 0.8 |
| 2025-03-12 11:40:05 | 9.4 | 992.1 | 76.0 | 305.3 | 0.0 |
| 2025-03-12 12:00:03 | 10.5 | 991.8 | 72.0 | 335.9 | 0.0 |
| 2025-03-12 12:20:03 | 12.2 | 991.4 | 66.0 | 364.2 | 0.8 |
| 2025-03-12 12:40:03 | 12.8 | 991.4 | 63.0 | 407.9 | 1.8 |
| 2025-03-12 13:00:03 | 9.5 | 991.4 | 71.0 | 68.5 | 0.8 |
| 2025-03-12 13:28:18 | 7.1 | 991.4 | 80.0 | 115.0 | 1.3 |
| 2025-03-12 13:48:18 | 7.2 | 991.8 | 76.0 | 145.5 | 2.5 |
| 2025-03-12 14:08:18 | 6.4 | 991.4 | 78.0 | 93.6 | 3.6 |
| 2025-03-12 14:28:17 | 7.0 | 991.4 | 76.0 | 193.5 | 2.4 |
| 2025-03-12 14:48:18 | 8.1 | 991.4 | 74.0 | 240.7 | 1.4 |
| 2025-03-12 15:09:17 | 8.8 | 991.4 | 70.0 | 103.0 | 0.7 |
CSV export: /station/IWELLEN5/data?period=20250312T000000/20250312T235959&format=csv&tz=GMT